Time;durP1;ratioP1;P1;durP2;ratioP2;P2;SDS_P1;SDS_P2;PMS_P1;PMS_P2;Temp;Humidity;BMP_temperature;BMP_pressure;BME280_temperature;BME280_humidity;BME280_pressure;Samples;Min_cycle;Max_cycle;Signal;HPM_P1;HPM_P2
2022/01/06 00:00:24;;;;;;;;;;;10.00;62.90;;;;;;4994134;28;19920;-90
2022/01/06 00:02:53;;;;;;;;;;;10.00;62.80;;;;;;4982706;28;20336;-90
2022/01/06 00:05:20;;;;;;;;;;;10.00;62.80;;;;;;4982257;28;19913;-91
2022/01/06 00:07:47;;;;;;;;;;;10.10;62.90;;;;;;4983853;28;19943;-91
2022/01/06 00:10:15;;;;;;;;;;;10.10;62.60;;;;;;4982158;28;20057;-90
2022/01/06 00:13:04;;;;;;;;;;;10.00;62.40;;;;;;4983776;28;20042;-91
2022/01/06 00:25:36;;;;;;;;;;;9.90;62.50;;;;;;5001980;28;19918;-90
2022/01/06 00:28:04;;;;;;;;;;;9.90;62.50;;;;;;4982148;28;19921;-90
2022/01/06 00:30:33;;;;;;;;;;;9.90;62.50;;;;;;5000171;28;19969;-90
2022/01/06 00:32:59;;;;;;;;;;;10.00;62.60;;;;;;4985117;28;19929;-90
2022/01/06 00:35:28;;;;;;;;;;;10.00;62.60;;;;;;4983986;28;19920;-91
2022/01/06 00:37:58;;;;;;;;;;;10.00;62.50;;;;;;5015861;23;20377;-90
2022/01/06 00:40:28;;;;;;;;;;;10.00;62.50;;;;;;4964692;28;20005;-90
2022/01/06 00:42:56;;;;;;;;;;;10.10;62.50;;;;;;5164811;23;20175;-90
2022/01/06 00:45:22;;;;;;;;;;;10.10;62.50;;;;;;5036745;28;19976;-90
2022/01/06 00:47:50;;;;;;;;;;;10.10;62.60;;;;;;5039073;28;19913;-90
2022/01/06 00:50:17;;;;;;;;;;;10.10;62.70;;;;;;5040921;28;19913;-90
2022/01/06 00:52:43;;;;;;;;;;;10.20;62.50;;;;;;5039050;28;19928;-90
2022/01/06 00:55:10;;;;;;;;;;;10.10;62.30;;;;;;5040182;28;19912;-90
2022/01/06 00:57:38;;;;;;;;;;;10.20;62.50;;;;;;5043041;28;20037;-90
2022/01/06 01:00:04;;;;;;;;;;;10.20;62.40;;;;;;5043242;28;20129;-90
2022/01/06 01:02:32;;;;;;;;;;;10.20;62.40;;;;;;5038587;28;20368;-90
2022/01/06 01:05:02;;;;;;;;;;;10.10;62.20;;;;;;5043044;28;19979;-90
2022/01/06 01:07:30;;;;;;;;;;;10.10;62.30;;;;;;5038924;28;20023;-90
2022/01/06 01:09:57;;;;;;;;;;;10.10;62.20;;;;;;5030161;28;20275;-91
2022/01/06 01:12:28;;;;;;;;;;;10.10;62.30;;;;;;5043561;28;20257;-91
2022/01/06 01:15:06;;;;;;;;;;;10.10;62.30;;;;;;5046279;28;19913;-92
2022/01/06 01:17:34;;;;;;;;;;;10.10;62.50;;;;;;5045428;28;19967;-90
2022/01/06 01:20:01;;;;;;;;;;;10.20;62.40;;;;;;5071625;23;19925;-90
2022/01/06 01:22:29;;;;;;;;;;;10.20;62.30;;;;;;5045600;28;20393;-90
2022/01/06 01:24:55;;;;;;;;;;;10.20;62.10;;;;;;5044653;28;20461;-89
2022/01/06 01:27:23;;;;;;;;;;;10.10;62.00;;;;;;5045817;28;20530;-90
2022/01/06 01:30:03;;;;;;;;;;;10.00;62.00;;;;;;5042641;28;20007;-90
2022/01/06 01:32:35;;;;;;;;;;;9.90;61.80;;;;;;5030645;28;19917;-90
2022/01/06 01:35:02;;;;;;;;;;;9.80;61.90;;;;;;5022669;28;20572;-90
2022/01/06 01:37:29;;;;;;;;;;;9.80;62.20;;;;;;5030569;28;19913;-90
2022/01/06 01:39:56;;;;;;;;;;;9.70;62.30;;;;;;5045155;28;19960;-90
2022/01/06 01:44:52;;;;;;;;;;;9.70;62.50;;;;;;5001772;28;19926;-90
2022/01/06 01:47:28;;;;;;;;;;;9.70;62.70;;;;;;4988098;28;19925;-90
2022/01/06 01:49:58;;;;;;;;;;;9.70;62.80;;;;;;4983897;28;19917;-90
2022/01/06 01:52:24;;;;;;;;;;;9.70;62.50;;;;;;4989991;28;19918;-89
2022/01/06 01:54:50;;;;;;;;;;;9.60;62.60;;;;;;4985976;28;19914;-90
2022/01/06 01:57:16;;;;;;;;;;;9.60;62.60;;;;;;5001400;28;20012;-90
2022/01/06 01:59:44;;;;;;;;;;;9.60;62.60;;;;;;5002080;28;19932;-90
2022/01/06 02:02:10;;;;;;;;;;;9.50;62.70;;;;;;5028781;23;19924;-90
2022/01/06 02:07:12;;;;;;;;;;;9.50;62.80;;;;;;5197598;23;19929;-90
2022/01/06 02:09:38;;;;;;;;;;;9.50;62.90;;;;;;5050011;28;19923;-90
2022/01/06 02:12:04;;;;;;;;;;;9.40;62.80;;;;;;5046384;28;19913;-90
2022/01/06 02:14:33;;;;;;;;;;;9.40;62.90;;;;;;5065669;28;19909;-90
2022/01/06 02:16:59;;;;;;;;;;;9.40;62.80;;;;;;5039944;28;20007;-90
2022/01/06 02:19:26;;;;;;;;;;;9.40;62.90;;;;;;5046821;28;19984;-90
2022/01/06 02:21:52;;;;;;;;;;;9.40;63.00;;;;;;5040207;28;20279;-90
2022/01/06 02:24:19;;;;;;;;;;;9.40;62.90;;;;;;5040034;28;19920;-89
2022/01/06 02:26:46;;;;;;;;;;;9.40;63.00;;;;;;5039728;28;19921;-90
2022/01/06 02:29:12;;;;;;;;;;;9.40;63.00;;;;;;5042002;28;19917;-90
2022/01/06 02:31:46;;;;;;;;;;;9.50;62.80;;;;;;5033804;28;19924;-90
2022/01/06 02:34:11;;;;;;;;;;;9.40;62.50;;;;;;5020968;28;19920;-90
2022/01/06 02:36:38;;;;;;;;;;;9.40;62.30;;;;;;5082451;23;19929;-90
2022/01/06 02:39:04;;;;;;;;;;;9.30;62.10;;;;;;5037545;28;20004;-90
2022/01/06 02:41:30;;;;;;;;;;;9.30;62.00;;;;;;5034893;28;19968;-90
2022/01/06 02:43:56;;;;;;;;;;;9.30;62.20;;;;;;5039012;28;19913;-90
2022/01/06 02:46:23;;;;;;;;;;;9.20;62.40;;;;;;5035894;28;19941;-90
2022/01/06 02:48:49;;;;;;;;;;;9.20;62.40;;;;;;5036186;28;19916;-89
2022/01/06 02:51:15;;;;;;;;;;;9.30;62.40;;;;;;5033465;28;19918;-90
2022/01/06 02:53:41;;;;;;;;;;;9.20;62.40;;;;;;5033836;28;19924;-90
2022/01/06 02:56:07;;;;;;;;;;;9.20;62.20;;;;;;5033389;28;20016;-90
2022/01/06 02:58:33;;;;;;;;;;;9.10;61.60;;;;;;5034885;28;20307;-90
2022/01/06 03:00:59;;;;;;;;;;;9.00;60.90;;;;;;5042963;28;19924;-91
2022/01/06 03:03:24;;;;;;;;;;;8.90;60.50;;;;;;5038732;28;19958;-91
2022/01/06 03:05:50;;;;;;;;;;;8.70;60.10;;;;;;5040019;28;20354;-90
2022/01/06 03:08:22;;;;;;;;;;;8.60;60.30;;;;;;5044552;28;19908;-90
2022/01/06 03:10:50;;;;;;;;;;;8.50;60.20;;;;;;5043252;28;19912;-90
2022/01/06 03:13:15;;;;;;;;;;;8.30;60.10;;;;;;5038467;28;19913;-90
2022/01/06 03:15:41;;;;;;;;;;;8.20;59.90;;;;;;5053272;28;19920;-90
2022/01/06 03:18:07;;;;;;;;;;;8.10;59.50;;;;;;5038537;28;19927;-90
2022/01/06 03:20:34;;;;;;;;;;;8.00;60.00;;;;;;5055309;28;19912;-90
2022/01/06 03:23:00;;;;;;;;;;;7.90;60.00;;;;;;5055874;28;20324;-90
2022/01/06 03:25:26;;;;;;;;;;;7.80;59.80;;;;;;5038164;28;20017;-89
2022/01/06 03:27:52;;;;;;;;;;;7.70;59.30;;;;;;5042095;28;19924;-90
2022/01/06 03:30:19;;;;;;;;;;;7.60;59.00;;;;;;5055262;28;20315;-91
2022/01/06 03:32:45;;;;;;;;;;;7.50;58.60;;;;;;5037675;28;20363;-90
2022/01/06 03:35:12;;;;;;;;;;;7.30;58.10;;;;;;5056037;28;20303;-91
2022/01/06 03:37:38;;;;;;;;;;;7.20;57.70;;;;;;5058233;28;20011;-89
2022/01/06 03:40:05;;;;;;;;;;;7.10;57.80;;;;;;5058850;28;19936;-90
2022/01/06 03:42:32;;;;;;;;;;;7.00;57.70;;;;;;5057315;28;19954;-90
2022/01/06 03:44:58;;;;;;;;;;;6.80;57.90;;;;;;5055917;28;19916;-90
2022/01/06 03:47:24;;;;;;;;;;;6.70;57.90;;;;;;5059298;28;20063;-90
2022/01/06 03:49:49;;;;;;;;;;;6.70;58.30;;;;;;5059865;28;19939;-90
2022/01/06 03:52:15;;;;;;;;;;;6.60;58.40;;;;;;5073985;28;19916;-90
2022/01/06 03:54:41;;;;;;;;;;;6.50;58.30;;;;;;5056423;28;19916;-90
2022/01/06 03:57:11;;;;;;;;;;;6.40;58.20;;;;;;5074996;28;19931;-91
2022/01/06 03:59:42;;;;;;;;;;;6.30;58.30;;;;;;5077612;28;19919;-91
2022/01/06 04:04:37;;;;;;;;;;;6.20;58.30;;;;;;5071501;23;19929;-89
2022/01/06 04:07:03;;;;;;;;;;;6.20;58.50;;;;;;5032921;28;19929;-90
2022/01/06 04:09:29;;;;;;;;;;;6.20;58.60;;;;;;5016006;28;19913;-89
2022/01/06 04:11:54;;;;;;;;;;;6.10;58.70;;;;;;5016553;28;19932;-90
2022/01/06 04:14:20;;;;;;;;;;;6.10;58.90;;;;;;5018379;28;19917;-90
2022/01/06 04:16:45;;;;;;;;;;;6.10;59.00;;;;;;5025280;28;19944;-90
2022/01/06 04:19:11;;;;;;;;;;;6.10;58.90;;;;;;5035772;28;19940;-89
2022/01/06 04:21:36;;;;;;;;;;;6.10;58.80;;;;;;5036751;28;19913;-89
2022/01/06 04:24:02;;;;;;;;;;;6.00;58.80;;;;;;5033417;28;19913;-89
2022/01/06 04:26:27;;;;;;;;;;;6.00;58.70;;;;;;5039898;28;19921;-89
2022/01/06 04:28:53;;;;;;;;;;;6.00;58.60;;;;;;5026763;28;19913;-90
2022/01/06 04:31:18;;;;;;;;;;;6.00;58.60;;;;;;5013259;28;20008;-89
2022/01/06 04:33:44;;;;;;;;;;;5.90;58.50;;;;;;5003777;28;19921;-89
2022/01/06 04:36:09;;;;;;;;;;;5.80;58.40;;;;;;5040109;28;19990;-89
2022/01/06 04:38:36;;;;;;;;;;;5.80;58.20;;;;;;5038121;28;19921;-88
2022/01/06 04:41:05;;;;;;;;;;;5.80;59.20;;;;;;5057258;28;20372;-88
2022/01/06 04:43:30;;;;;;;;;;;5.80;60.10;;;;;;5061161;28;19916;-89
2022/01/06 04:45:56;;;;;;;;;;;5.80;60.10;;;;;;5038473;28;19923;-89
2022/01/06 04:48:21;;;;;;;;;;;5.80;59.90;;;;;;5057569;28;19916;-89
2022/01/06 04:50:47;;;;;;;;;;;5.80;59.70;;;;;;5036531;28;20329;-89
2022/01/06 04:53:13;;;;;;;;;;;5.80;59.70;;;;;;5039518;28;20027;-89
2022/01/06 04:55:38;;;;;;;;;;;5.80;59.70;;;;;;5034667;28;20272;-89
2022/01/06 04:58:03;;;;;;;;;;;5.80;59.40;;;;;;5037498;28;19924;-89
2022/01/06 05:00:29;;;;;;;;;;;5.80;59.30;;;;;;5016576;28;20372;-89
2022/01/06 05:02:54;;;;;;;;;;;5.80;59.20;;;;;;5024866;28;19932;-89
2022/01/06 05:05:20;;;;;;;;;;;5.70;59.20;;;;;;5014937;28;19913;-89
2022/01/06 05:07:45;;;;;;;;;;;5.70;59.10;;;;;;5037888;28;19925;-89
2022/01/06 05:10:11;;;;;;;;;;;5.70;59.00;;;;;;5018564;28;19963;-89
2022/01/06 05:12:43;;;;;;;;;;;5.60;59.30;;;;;;5036675;28;20475;-89
2022/01/06 05:15:09;;;;;;;;;;;5.60;59.10;;;;;;5020290;28;20521;-89
2022/01/06 05:17:35;;;;;;;;;;;5.60;59.10;;;;;;5034632;28;19921;-88
2022/01/06 05:20:01;;;;;;;;;;;5.50;59.20;;;;;;5038438;28;19909;-89
2022/01/06 05:22:27;;;;;;;;;;;5.50;59.20;;;;;;5016353;28;19995;-89
2022/01/06 05:24:54;;;;;;;;;;;5.50;59.00;;;;;;5039408;28;20281;-90
2022/01/06 05:27:19;;;;;;;;;;;5.40;58.70;;;;;;5035226;28;19951;-89
2022/01/06 05:29:45;;;;;;;;;;;5.40;58.70;;;;;;5032439;28;19916;-89
2022/01/06 05:32:11;;;;;;;;;;;5.30;58.70;;;;;;5004544;28;19929;-89
2022/01/06 05:34:37;;;;;;;;;;;5.30;58.90;;;;;;4995609;28;19924;-89
2022/01/06 05:37:02;;;;;;;;;;;5.30;58.90;;;;;;5014189;28;19947;-89
2022/01/06 05:39:28;;;;;;;;;;;5.30;58.90;;;;;;5014913;28;19913;-90
2022/01/06 05:41:53;;;;;;;;;;;5.30;58.90;;;;;;4999051;28;21757;-89
2022/01/06 05:44:19;;;;;;;;;;;5.20;58.90;;;;;;4999564;28;20004;-89
2022/01/06 05:46:47;;;;;;;;;;;5.20;58.80;;;;;;5014922;28;19972;-89
2022/01/06 05:49:13;;;;;;;;;;;5.10;58.90;;;;;;4997515;28;19963;-89
2022/01/06 05:51:39;;;;;;;;;;;5.10;59.20;;;;;;4998235;28;19913;-89
2022/01/06 05:54:04;;;;;;;;;;;5.10;59.20;;;;;;4999377;28;19909;-89
2022/01/06 05:56:30;;;;;;;;;;;5.10;59.40;;;;;;5021466;28;19944;-89
2022/01/06 05:58:55;;;;;;;;;;;5.10;59.20;;;;;;5021845;28;19929;-88
2022/01/06 06:03:54;;;;;;;;;;;5.10;59.00;;;;;;5159575;23;19935;-89
2022/01/06 06:06:22;;;;;;;;;;;5.10;59.10;;;;;;5038799;28;19928;-88
2022/01/06 06:08:49;;;;;;;;;;;5.10;59.50;;;;;;5058817;23;19937;-89
2022/01/06 06:13:42;;;;;;;;;;;5.10;59.30;;;;;;5166297;23;19947;-90
2022/01/06 06:16:15;;;;;;;;;;;5.10;59.10;;;;;;5095416;23;19925;-89
2022/01/06 06:18:41;;;;;;;;;;;5.20;59.20;;;;;;5064097;23;19940;-90
2022/01/06 06:21:07;;;;;;;;;;;5.20;59.60;;;;;;5024588;28;19913;-88
2022/01/06 06:26:01;;;;;;;;;;;5.30;60.20;;;;;;5162886;23;19995;-89
2022/01/06 06:28:28;;;;;;;;;;;5.40;60.50;;;;;;5038565;28;19917;-88
2022/01/06 06:30:54;;;;;;;;;;;5.50;60.70;;;;;;5041989;28;19920;-88
2022/01/06 06:33:20;;;;;;;;;;;5.60;60.90;;;;;;5041418;28;19960;-88
2022/01/06 06:35:45;;;;;;;;;;;5.70;61.20;;;;;;5043279;28;20126;-89
2022/01/06 06:38:11;;;;;;;;;;;5.70;61.30;;;;;;5039930;28;19916;-89
2022/01/06 06:40:37;;;;;;;;;;;5.80;61.50;;;;;;5043780;28;19969;-88
2022/01/06 06:43:02;;;;;;;;;;;5.80;61.70;;;;;;5045848;23;19938;-89
2022/01/06 06:45:28;;;;;;;;;;;5.90;61.80;;;;;;5020205;28;19917;-89
2022/01/06 06:47:55;;;;;;;;;;;6.00;61.90;;;;;;5043548;28;19926;-89
2022/01/06 06:50:22;;;;;;;;;;;6.10;61.90;;;;;;5018101;28;19952;-89
2022/01/06 06:52:48;;;;;;;;;;;6.10;61.90;;;;;;5020994;28;19925;-89
2022/01/06 06:55:14;;;;;;;;;;;6.20;62.00;;;;;;5243100;23;20030;-89
2022/01/06 06:57:40;;;;;;;;;;;6.20;61.90;;;;;;5037798;28;19913;-89
2022/01/06 07:02:32;;;;;;;;;;;6.20;61.40;;;;;;5252021;23;19952;-89
2022/01/06 07:05:01;;;;;;;;;;;6.10;60.70;;;;;;5015267;28;19936;-89
2022/01/06 07:07:29;;;;;;;;;;;6.00;59.80;;;;;;5002173;23;20159;-89
2022/01/06 07:09:54;;;;;;;;;;;6.00;59.20;;;;;;4953602;28;19919;-88
2022/01/06 07:12:20;;;;;;;;;;;5.90;58.60;;;;;;4972969;28;19922;-89
2022/01/06 07:14:46;;;;;;;;;;;5.80;58.80;;;;;;4948658;28;19914;-89
2022/01/06 07:17:12;;;;;;;;;;;5.70;58.70;;;;;;4950923;28;19918;-89
2022/01/06 07:19:38;;;;;;;;;;;5.70;58.50;;;;;;4953132;28;19914;-89
2022/01/06 07:22:05;;;;;;;;;;;5.60;58.30;;;;;;4948011;28;20286;-88
2022/01/06 07:24:31;;;;;;;;;;;5.50;58.30;;;;;;5008993;23;20448;-89
2022/01/06 07:26:57;;;;;;;;;;;5.50;58.70;;;;;;4994497;28;19918;-89
2022/01/06 07:29:24;;;;;;;;;;;5.40;58.80;;;;;;5022058;23;19931;-89
2022/01/06 07:32:02;;;;;;;;;;;5.40;59.10;;;;;;5056495;23;20575;-88
2022/01/06 07:34:37;;;;;;;;;;;5.40;59.50;;;;;;5156784;23;19929;-89
2022/01/06 07:37:03;;;;;;;;;;;5.50;59.90;;;;;;5035576;28;19923;-88
2022/01/06 07:39:30;;;;;;;;;;;5.40;59.80;;;;;;5039342;28;19945;-89
2022/01/06 07:41:58;;;;;;;;;;;5.40;59.30;;;;;;5034152;23;19938;-88
2022/01/06 07:44:25;;;;;;;;;;;5.40;58.60;;;;;;4952028;28;20065;-89
2022/01/06 07:46:51;;;;;;;;;;;5.40;58.40;;;;;;4943421;29;20421;-88
2022/01/06 07:49:18;;;;;;;;;;;5.30;58.40;;;;;;4968672;28;20340;-88
2022/01/06 07:51:45;;;;;;;;;;;5.30;58.50;;;;;;4952623;28;19962;-89
2022/01/06 07:54:11;;;;;;;;;;;5.30;59.00;;;;;;4948590;28;19914;-89
2022/01/06 07:56:37;;;;;;;;;;;5.30;59.70;;;;;;4947395;28;19928;-89
2022/01/06 07:59:03;;;;;;;;;;;5.30;60.20;;;;;;5070628;23;19922;-89
2022/01/06 08:01:32;;;;;;;;;;;5.40;60.10;;;;;;5030412;28;19939;-89
2022/01/06 08:03:58;;;;;;;;;;;5.40;60.40;;;;;;5028056;28;19999;-89
2022/01/06 08:06:25;;;;;;;;;;;5.60;61.10;;;;;;5028171;23;19933;-89
2022/01/06 08:08:51;;;;;;;;;;;5.70;61.50;;;;;;5008481;28;19948;-90
2022/01/06 08:11:19;;;;;;;;;;;5.80;61.80;;;;;;5000875;28;19922;-89
2022/01/06 08:13:47;;;;;;;;;;;6.00;62.30;;;;;;4997785;28;20065;-90
2022/01/06 08:16:14;;;;;;;;;;;6.20;62.40;;;;;;4845194;23;19933;-89
2022/01/06 08:18:43;;;;;;;;;;;6.40;62.40;;;;;;5035782;28;20556;-90
2022/01/06 08:21:13;;;;;;;;;;;6.60;62.40;;;;;;4795991;23;2834953;-90
2022/01/06 08:23:39;;;;;;;;;;;6.70;62.30;;;;;;5013239;28;19910;-89
2022/01/06 08:26:08;;;;;;;;;;;6.90;61.90;;;;;;4998074;28;20391;-89
2022/01/06 08:28:36;;;;;;;;;;;6.90;61.50;;;;;;4994409;28;19952;-90
2022/01/06 08:31:12;;;;;;;;;;;6.90;61.20;;;;;;4997008;28;19953;-89
2022/01/06 08:33:40;;;;;;;;;;;7.00;61.20;;;;;;4994603;28;19894;-89
2022/01/06 08:36:08;;;;;;;;;;;7.00;61.30;;;;;;4994083;28;19922;-89
2022/01/06 08:38:34;;;;;;;;;;;7.10;61.40;;;;;;4993252;28;19944;-90
2022/01/06 08:41:06;;;;;;;;;;;7.10;61.30;;;;;;4995133;28;20375;-90
2022/01/06 08:43:37;;;;;;;;;;;7.20;61.10;;;;;;5012423;28;19910;-90
2022/01/06 08:46:05;;;;;;;;;;;7.20;61.20;;;;;;4994056;28;20040;-90
2022/01/06 08:48:32;;;;;;;;;;;7.30;61.30;;;;;;4999065;28;19926;-90
2022/01/06 08:50:58;;;;;;;;;;;7.30;61.20;;;;;;5002817;28;19997;-90
2022/01/06 08:53:24;;;;;;;;;;;7.30;61.30;;;;;;5000645;28;20008;-90
2022/01/06 09:20:01;;;;;;;;;;;10.70;64.30;;;;;;5064004;23;19933;-94
2022/01/06 09:22:29;;;;;;;;;;;10.80;63.40;;;;;;4999667;28;19913;-94
2022/01/06 09:24:55;;;;;;;;;;;10.80;62.60;;;;;;4991609;28;19922;-92
2022/01/06 09:27:29;;;;;;;;;;;10.80;62.10;;;;;;5017163;28;19921;-94
2022/01/06 09:29:55;;;;;;;;;;;10.60;61.50;;;;;;5006868;28;19924;-95
2022/01/06 09:32:21;;;;;;;;;;;10.60;61.40;;;;;;4996913;28;20333;-95
2022/01/06 09:34:47;;;;;;;;;;;10.60;62.20;;;;;;5001055;28;19971;-94
2022/01/06 09:37:15;;;;;;;;;;;10.70;63.40;;;;;;5009173;28;19968;-94
2022/01/06 09:39:41;;;;;;;;;;;10.90;64.30;;;;;;4997503;28;20092;-95
2022/01/06 09:42:09;;;;;;;;;;;11.20;64.70;;;;;;5011869;28;19921;-96
2022/01/06 09:44:36;;;;;;;;;;;11.50;64.80;;;;;;4994014;28;19918;-95
2022/01/06 09:47:02;;;;;;;;;;;11.80;64.60;;;;;;4991798;28;19997;-95
2022/01/06 09:49:27;;;;;;;;;;;12.10;64.70;;;;;;4993252;28;19980;-96
2022/01/06 09:51:53;;;;;;;;;;;12.30;64.80;;;;;;4998593;28;19940;-96
2022/01/06 09:54:19;;;;;;;;;;;12.60;64.30;;;;;;4997259;28;19937;-95
2022/01/06 09:56:44;;;;;;;;;;;12.80;64.20;;;;;;5000727;28;19944;-96
2022/01/06 09:59:13;;;;;;;;;;;13.00;64.40;;;;;;5004338;28;19928;-95
2022/01/06 10:01:39;;;;;;;;;;;13.20;64.00;;;;;;4983472;28;20020;-95
2022/01/06 10:04:04;;;;;;;;;;;13.20;62.90;;;;;;4991487;28;19957;-94
2022/01/06 10:06:30;;;;;;;;;;;13.00;62.00;;;;;;4991957;28;19925;-94
2022/01/06 10:08:57;;;;;;;;;;;12.90;61.70;;;;;;4994220;28;19909;-95
2022/01/06 10:11:25;;;;;;;;;;;12.80;62.50;;;;;;4988722;28;20321;-96
2022/01/06 10:13:56;;;;;;;;;;;12.80;62.80;;;;;;5003345;28;19925;-95
2022/01/06 10:16:25;;;;;;;;;;;12.90;63.30;;;;;;5000995;28;19913;-95
2022/01/06 10:18:55;;;;;;;;;;;13.00;63.70;;;;;;4999390;28;19925;-95
2022/01/06 10:21:29;;;;;;;;;;;13.10;63.50;;;;;;5014360;28;19918;-95
2022/01/06 10:24:27;;;;;;;;;;;13.30;63.80;;;;;;5004745;28;19940;-96
2022/01/06 10:27:01;;;;;;;;;;;13.50;64.00;;;;;;4989033;28;20615;-95
2022/01/06 10:29:29;;;;;;;;;;;13.70;64.00;;;;;;4971100;28;19921;-95
2022/01/06 10:32:16;;;;;;;;;;;13.90;63.30;;;;;;4988864;28;19922;-94
2022/01/06 10:35:02;;;;;;;;;;;14.00;62.90;;;;;;5007277;28;19925;-94
2022/01/06 10:37:27;;;;;;;;;;;14.00;61.80;;;;;;4983647;28;20337;-94
2022/01/06 10:39:57;;;;;;;;;;;14.10;61.90;;;;;;5033883;28;19926;-95
2022/01/06 10:42:24;;;;;;;;;;;14.20;61.90;;;;;;5014733;28;19913;-94
2022/01/06 10:45:08;;;;;;;;;;;14.30;62.00;;;;;;5011312;28;20002;-95
2022/01/06 10:47:36;;;;;;;;;;;14.30;61.90;;;;;;5015464;28;19932;-95
2022/01/06 10:50:21;;;;;;;;;;;14.40;61.70;;;;;;4999412;28;19960;-95
2022/01/06 10:53:05;;;;;;;;;;;14.40;61.40;;;;;;5015313;28;20397;-92
2022/01/06 10:55:33;;;;;;;;;;;14.50;61.00;;;;;;5000012;28;19925;-95
2022/01/06 10:58:04;;;;;;;;;;;14.50;60.70;;;;;;5001886;28;19928;-94
2022/01/06 11:03:06;;;;;;;;;;;14.60;61.20;;;;;;5018992;28;19926;-94
2022/01/06 11:05:33;;;;;;;;;;;14.70;61.40;;;;;;4990727;28;19897;-94
2022/01/06 11:07:59;;;;;;;;;;;14.70;61.20;;;;;;5013349;28;20628;-93
2022/01/06 11:10:25;;;;;;;;;;;14.80;60.70;;;;;;5018953;28;19940;-94
2022/01/06 11:12:51;;;;;;;;;;;14.80;60.40;;;;;;5019004;28;19961;-92
2022/01/06 11:15:17;;;;;;;;;;;14.80;60.60;;;;;;5029574;28;19922;-93
2022/01/06 11:17:51;;;;;;;;;;;14.80;60.30;;;;;;4998386;28;19913;-95
2022/01/06 11:20:27;;;;;;;;;;;14.80;60.40;;;;;;4992881;28;19918;-94
2022/01/06 11:22:54;;;;;;;;;;;14.90;60.30;;;;;;5026208;28;19917;-95
2022/01/06 11:25:30;;;;;;;;;;;14.90;60.30;;;;;;5010066;28;19917;-94
2022/01/06 11:28:09;;;;;;;;;;;14.90;60.30;;;;;;5018765;28;19918;-94
2022/01/06 11:30:53;;;;;;;;;;;14.90;60.30;;;;;;4991955;28;19918;-94
2022/01/06 11:33:18;;;;;;;;;;;15.00;60.40;;;;;;5015257;28;19917;-93
2022/01/06 11:35:48;;;;;;;;;;;15.00;60.10;;;;;;5005454;28;20009;-94
2022/01/06 11:38:15;;;;;;;;;;;15.00;59.60;;;;;;5014805;28;19939;-93
2022/01/06 11:40:41;;;;;;;;;;;15.00;59.20;;;;;;5035729;28;19917;-93
2022/01/06 11:43:07;;;;;;;;;;;15.00;59.10;;;;;;4989846;28;20384;-94
2022/01/06 11:45:35;;;;;;;;;;;15.00;59.70;;;;;;4998277;28;19914;-93
2022/01/06 11:48:02;;;;;;;;;;;14.90;59.80;;;;;;5001936;28;19932;-93
2022/01/06 11:50:27;;;;;;;;;;;14.90;59.30;;;;;;5017900;28;19909;-94
2022/01/06 11:52:55;;;;;;;;;;;14.80;58.90;;;;;;5015462;28;19917;-93
2022/01/06 11:55:22;;;;;;;;;;;14.70;59.10;;;;;;5014988;28;19917;-93
2022/01/06 11:57:47;;;;;;;;;;;14.60;58.60;;;;;;5008789;28;19913;-94
2022/01/06 12:00:13;;;;;;;;;;;14.50;58.90;;;;;;4993723;28;20360;-95
2022/01/06 12:02:38;;;;;;;;;;;14.40;59.00;;;;;;4998752;28;19922;-95
2022/01/06 12:05:04;;;;;;;;;;;14.30;59.00;;;;;;5003739;28;19980;-93
2022/01/06 12:07:30;;;;;;;;;;;14.00;58.80;;;;;;5002389;28;19918;-93
2022/01/06 12:09:56;;;;;;;;;;;13.70;58.10;;;;;;4984507;28;19929;-93
2022/01/06 12:12:30;;;;;;;;;;;13.40;58.20;;;;;;4990509;28;19920;-93
2022/01/06 12:15:17;;;;;;;;;;;13.10;58.70;;;;;;5033388;28;19988;-93
2022/01/06 12:17:51;;;;;;;;;;;12.70;59.50;;;;;;4992973;28;19910;-95
2022/01/06 12:20:18;;;;;;;;;;;12.50;60.00;;;;;;4989339;28;19918;-92
2022/01/06 12:22:43;;;;;;;;;;;12.20;59.90;;;;;;5002268;28;19910;-93
2022/01/06 12:25:09;;;;;;;;;;;12.00;60.20;;;;;;5027354;28;19921;-93
2022/01/06 12:27:43;;;;;;;;;;;11.80;60.50;;;;;;5000769;28;19921;-91
2022/01/06 12:30:09;;;;;;;;;;;11.60;60.50;;;;;;5020695;28;19972;-93
2022/01/06 12:32:35;;;;;;;;;;;11.40;61.30;;;;;;5009816;28;20015;-90
2022/01/06 12:35:00;;;;;;;;;;;11.30;61.50;;;;;;5009760;28;19968;-93
2022/01/06 12:37:27;;;;;;;;;;;11.20;61.60;;;;;;4989912;28;19917;-92
2022/01/06 12:39:53;;;;;;;;;;;11.20;61.70;;;;;;5016220;28;19959;-94
2022/01/06 12:42:19;;;;;;;;;;;11.10;61.80;;;;;;5001975;28;19925;-93
2022/01/06 12:44:44;;;;;;;;;;;11.00;62.20;;;;;;5013233;28;19914;-94
2022/01/06 12:47:10;;;;;;;;;;;10.90;62.20;;;;;;4992027;28;20409;-91
2022/01/06 12:49:37;;;;;;;;;;;10.80;62.40;;;;;;4991619;28;19971;-95
2022/01/06 12:52:03;;;;;;;;;;;10.90;62.60;;;;;;4991663;28;19910;-94
2022/01/06 12:54:32;;;;;;;;;;;10.90;62.70;;;;;;4995095;28;20008;-95
2022/01/06 12:56:58;;;;;;;;;;;10.90;63.20;;;;;;4983654;28;19918;-94
2022/01/06 12:59:29;;;;;;;;;;;11.00;63.30;;;;;;4988399;28;19908;-94
2022/01/06 13:01:56;;;;;;;;;;;11.10;63.30;;;;;;5000929;28;19926;-94
2022/01/06 13:04:25;;;;;;;;;;;11.00;63.40;;;;;;5023112;28;19916;-93
2022/01/06 13:06:53;;;;;;;;;;;11.10;63.30;;;;;;5024662;28;19913;-94
2022/01/06 13:09:20;;;;;;;;;;;11.10;63.30;;;;;;5023909;28;19964;-95
2022/01/06 13:11:48;;;;;;;;;;;11.10;63.40;;;;;;4984916;28;19924;-93
2022/01/06 13:14:23;;;;;;;;;;;11.20;63.40;;;;;;4989585;28;19972;-93
2022/01/06 13:16:50;;;;;;;;;;;11.20;63.30;;;;;;4984067;28;19910;-92
2022/01/06 13:19:16;;;;;;;;;;;11.20;63.20;;;;;;4997125;28;19926;-94
2022/01/06 13:21:51;;;;;;;;;;;11.20;63.20;;;;;;5003576;28;19918;-94
2022/01/06 13:24:18;;;;;;;;;;;11.20;62.90;;;;;;5014061;28;19916;-94
2022/01/06 13:26:45;;;;;;;;;;;11.10;62.80;;;;;;5021215;28;19925;-93
2022/01/06 13:29:12;;;;;;;;;;;11.00;62.50;;;;;;5025590;28;19922;-93
2022/01/06 13:31:37;;;;;;;;;;;11.00;62.40;;;;;;4991423;28;19965;-93
2022/01/06 13:34:03;;;;;;;;;;;10.90;62.30;;;;;;5018726;28;19901;-95
2022/01/06 13:36:30;;;;;;;;;;;10.90;62.20;;;;;;5000983;28;19928;-94
2022/01/06 13:39:04;;;;;;;;;;;10.80;62.30;;;;;;4982657;28;19972;-94
2022/01/06 13:41:30;;;;;;;;;;;10.70;62.30;;;;;;4983226;28;19917;-93
2022/01/06 13:43:57;;;;;;;;;;;10.70;62.20;;;;;;4987112;28;20560;-93
2022/01/06 13:46:25;;;;;;;;;;;10.70;61.80;;;;;;4990279;28;19922;-93
2022/01/06 13:51:36;;;;;;;;;;;10.60;61.70;;;;;;5015125;28;20427;-94
2022/01/06 13:54:08;;;;;;;;;;;10.50;61.40;;;;;;4989846;28;19961;-92
2022/01/06 13:56:34;;;;;;;;;;;10.50;61.20;;;;;;4988395;28;19992;-94
2022/01/06 13:59:07;;;;;;;;;;;10.40;61.10;;;;;;4993644;28;19935;-94
2022/01/06 14:01:32;;;;;;;;;;;10.30;61.10;;;;;;5005544;28;19924;-93
2022/01/06 14:03:58;;;;;;;;;;;10.30;61.30;;;;;;4990646;28;20375;-94
2022/01/06 14:06:24;;;;;;;;;;;10.30;61.40;;;;;;4998095;28;19928;-94
2022/01/06 14:08:49;;;;;;;;;;;10.20;61.20;;;;;;4997120;28;20451;-94
2022/01/06 14:11:16;;;;;;;;;;;10.20;61.00;;;;;;5001423;28;20397;-94
2022/01/06 14:13:43;;;;;;;;;;;10.20;60.90;;;;;;4997131;28;19944;-94
2022/01/06 14:16:08;;;;;;;;;;;10.10;60.90;;;;;;5002076;28;19913;-93
2022/01/06 14:18:34;;;;;;;;;;;10.10;60.90;;;;;;5024755;28;19913;-93
2022/01/06 14:21:00;;;;;;;;;;;10.10;60.60;;;;;;5016247;28;19936;-93
2022/01/06 14:23:28;;;;;;;;;;;10.00;60.50;;;;;;4990278;28;20266;-93
2022/01/06 14:25:54;;;;;;;;;;;10.00;60.80;;;;;;4990949;28;19913;-94
2022/01/06 14:28:20;;;;;;;;;;;10.00;60.60;;;;;;5003335;28;19920;-94
2022/01/06 14:30:45;;;;;;;;;;;9.90;60.60;;;;;;5009726;28;20420;-93
2022/01/06 14:33:11;;;;;;;;;;;9.90;60.90;;;;;;5004025;28;19953;-93
2022/01/06 14:35:36;;;;;;;;;;;9.90;60.80;;;;;;5014955;28;20040;-93
2022/01/06 14:38:02;;;;;;;;;;;9.80;60.20;;;;;;5018993;28;19921;-93
2022/01/06 14:40:31;;;;;;;;;;;9.80;60.40;;;;;;4987966;28;19921;-92
2022/01/06 14:42:58;;;;;;;;;;;9.80;60.70;;;;;;4997020;28;19919;-93
2022/01/06 14:45:25;;;;;;;;;;;9.70;60.70;;;;;;5012039;28;20011;-92
2022/01/06 14:47:52;;;;;;;;;;;9.70;60.80;;;;;;4990533;28;19926;-92
2022/01/06 14:50:18;;;;;;;;;;;9.70;60.60;;;;;;5020291;28;20292;-93
2022/01/06 14:52:44;;;;;;;;;;;9.60;60.40;;;;;;4997601;28;19925;-92
2022/01/06 14:55:13;;;;;;;;;;;9.50;60.90;;;;;;5004720;28;19923;-92
2022/01/06 14:57:39;;;;;;;;;;;9.50;60.80;;;;;;5008109;28;20013;-93
2022/01/06 15:00:06;;;;;;;;;;;9.40;60.60;;;;;;4999274;28;19917;-92
2022/01/06 15:02:31;;;;;;;;;;;9.30;60.40;;;;;;5019921;28;19917;-93
2022/01/06 15:04:57;;;;;;;;;;;9.30;60.20;;;;;;5011203;28;19924;-92
2022/01/06 15:07:22;;;;;;;;;;;9.30;60.40;;;;;;5011138;28;20008;-92
2022/01/06 15:09:48;;;;;;;;;;;9.20;60.10;;;;;;5016713;28;19971;-92
2022/01/06 15:12:13;;;;;;;;;;;9.10;60.00;;;;;;5030915;28;19913;-92
2022/01/06 15:14:39;;;;;;;;;;;9.00;59.80;;;;;;5042058;28;19917;-92
2022/01/06 15:17:04;;;;;;;;;;;9.00;59.90;;;;;;5020777;28;19911;-93
2022/01/06 15:19:30;;;;;;;;;;;8.90;59.90;;;;;;5009506;28;20004;-93
2022/01/06 15:21:55;;;;;;;;;;;8.80;59.80;;;;;;5040654;28;19920;-92